Aérodrome :
LOGIN :

S'inscrire | Disclaimer

   EN    FR    IT 

 










Légende :    VFR   VFR Marginal   IFR   IFR Intensif   IFR Très Intensif
Visi : 
Plafond : 
>= 8 km
>= 3000ft
5 à 8 km
1000 à 3000 ft
1500m à 5 km
500 à 1000 ft
800 à 1500m
200 à 500 ft
< 800m
< 200 ft
Symboles :   Orages  Brouillard  Fortes neiges  Fortes précipitations  Vent > 20 kt
SIGMETs :   Divers  Orages  Givrage  Turbulence  Onde Orograph.  Cendres Volcan.






- Altitude de l'aérodrome : 299 ft
- Code IATA : EDM


LFRI - La Roche Sur Yon - Les Ajoncs

DERNIER METAR :
  • 232030Z AUTO 10006KT CAVOK 13/13 Q1004 BECMG BKN014

METARs EXPIRÉS :
  • 232000Z AUTO 08006KT 5000 BR NSC 12/11 Q1004 NOSIG
  • 231930Z AUTO 07005KT 5000 BR NSC 12/11 Q1004 NOSIG
  • 231900Z AUTO 06005KT 8000 NSC 13/12 Q1005 NOSIG
  • 231830Z AUTO 06004KT CAVOK 14/13 Q1005 NOSIG
  • 231800Z AUTO 07005KT CAVOK 14/13 Q1005 NOSIG

TAF AMD TAF LFRI
Valide du 23 à 20h jusqu'au 24 à 18h UTC


232033Z 2320/2418 10005KT CAVOK
TEMPO 2320/2322 3000 BR
BECMG 2322/2324 BKN014
TEMPO 2402/2415 3000 -DZRA BKN008
PROB30
TEMPO 2403/2406 -TSRA BKN008CB
BECMG 2407/2409 28010KT
BECMG 2414/2416 SCT020



MET'MAP, la Météo Aéronautique d'un coup d'oeil ! - Copyright ORBIFLY Décembre 2007 - Disclaimer

ORBIFLY MET'MAP TEAM :

Programmation & Développement : Alexandra Zaïnal
Conception & Développement : Baudouin d'Aumeries
Co-Programmation & Développement : Marc-Olivier Méhu
Soutien technique & logistique : Manuel Goepfert

Contact : metmap@orbifly.com




SOURCES & CREDITS :

   NOAA